createdAt,value
2017-05-25T00:00:54.845Z,0
2017-05-25T00:01:56.296Z,0
2017-05-25T00:02:57.751Z,0
2017-05-25T00:03:59.205Z,0
2017-05-25T00:05:00.675Z,0
2017-05-25T00:06:02.146Z,0
2017-05-25T00:07:03.601Z,0
2017-05-25T00:08:05.051Z,0
2017-05-25T00:09:06.509Z,0
2017-05-25T00:10:07.952Z,0
2017-05-25T00:11:09.405Z,0
2017-05-25T00:12:10.868Z,0
2017-05-25T00:13:12.336Z,0
2017-05-25T00:14:13.785Z,0
2017-05-25T00:15:15.236Z,0
2017-05-25T00:16:16.686Z,0
2017-05-25T00:17:18.143Z,0
2017-05-25T00:18:19.603Z,0
2017-05-25T00:19:21.053Z,0
2017-05-25T00:20:22.505Z,0
2017-05-25T00:21:23.967Z,0
2017-05-25T00:22:25.424Z,0
2017-05-25T00:23:26.879Z,0
2017-05-25T00:24:28.332Z,0
2017-05-25T00:25:29.793Z,0
2017-05-25T00:26:31.254Z,0
2017-05-25T00:27:32.708Z,0
2017-05-25T00:28:34.163Z,0
2017-05-25T00:29:35.617Z,0
2017-05-25T00:30:37.080Z,0
2017-05-25T00:31:38.535Z,0
2017-05-25T00:32:39.989Z,0
2017-05-25T00:33:41.443Z,0
2017-05-25T00:34:42.891Z,0
2017-05-25T00:35:44.344Z,0
2017-05-25T00:36:45.800Z,0
2017-05-25T00:37:47.267Z,0
2017-05-25T00:38:48.723Z,0
2017-05-25T00:39:50.177Z,0
2017-05-25T00:40:51.636Z,0
2017-05-25T00:41:53.136Z,0
2017-05-25T00:42:54.587Z,0
2017-05-25T00:43:56.040Z,0
2017-05-25T00:44:57.495Z,0
2017-05-25T00:45:58.976Z,0
2017-05-25T00:47:00.436Z,0
2017-05-25T00:48:01.894Z,0
2017-05-25T00:49:03.344Z,0
2017-05-25T00:50:04.791Z,0
2017-05-25T00:51:06.255Z,0
2017-05-25T00:52:07.713Z,0
2017-05-25T00:53:09.164Z,0
2017-05-25T00:54:10.616Z,0
2017-05-25T00:55:12.072Z,0
2017-05-25T00:56:13.620Z,0
2017-05-25T00:57:14.989Z,0
2017-05-25T00:58:16.438Z,0
2017-05-25T00:59:17.897Z,0
2017-05-25T01:00:19.352Z,0
2017-05-25T01:01:20.821Z,0
2017-05-25T01:02:22.278Z,0
2017-05-25T01:03:23.730Z,0
2017-05-25T01:04:25.185Z,0
2017-05-25T01:05:26.643Z,0
2017-05-25T01:06:28.099Z,0
2017-05-25T01:07:29.554Z,0
2017-05-25T01:08:31.022Z,0
2017-05-25T01:09:32.489Z,0
2017-05-25T01:10:33.942Z,0
2017-05-25T01:11:35.395Z,0
2017-05-25T01:12:36.854Z,0
2017-05-25T01:13:38.303Z,0
2017-05-25T01:14:39.757Z,0
2017-05-25T01:15:41.207Z,0
2017-05-25T01:16:42.663Z,0
2017-05-25T01:17:44.118Z,0
2017-05-25T01:18:45.569Z,0
2017-05-25T01:19:47.025Z,0
2017-05-25T01:20:48.481Z,0
2017-05-25T01:21:49.944Z,0
2017-05-25T01:22:51.399Z,0
2017-05-25T01:23:52.889Z,0
2017-05-25T01:24:54.328Z,0
2017-05-25T01:25:55.778Z,0
2017-05-25T01:26:57.236Z,0
2017-05-25T01:27:58.686Z,0
2017-05-25T01:29:00.137Z,0
2017-05-25T01:30:01.603Z,0
2017-05-25T01:31:03.049Z,0
2017-05-25T01:32:04.515Z,0
2017-05-25T01:33:05.961Z,0
2017-05-25T01:34:07.405Z,0
2017-05-25T01:35:08.858Z,0
2017-05-25T01:36:10.335Z,0
2017-05-25T01:37:11.790Z,0
2017-05-25T01:38:13.244Z,0
2017-05-25T01:39:14.693Z,0
2017-05-25T01:40:16.141Z,0
2017-05-25T01:41:17.590Z,0
2017-05-25T01:42:19.045Z,0
2017-05-25T01:43:20.512Z,0
2017-05-25T01:44:21.962Z,0
2017-05-25T01:45:23.416Z,0
2017-05-25T01:46:24.873Z,0
2017-05-25T01:47:26.314Z,0
2017-05-25T01:48:27.765Z,0
2017-05-25T01:49:29.218Z,0
2017-05-25T01:50:30.672Z,0
2017-05-25T01:51:32.129Z,0
2017-05-25T01:52:33.586Z,0
2017-05-25T01:53:35.045Z,0
2017-05-25T01:54:36.495Z,0
2017-05-25T01:55:37.944Z,0
2017-05-25T01:56:39.412Z,0
2017-05-25T01:57:40.871Z,0
2017-05-25T01:58:42.326Z,0
2017-05-25T01:59:43.778Z,0
2017-05-25T02:00:45.228Z,0
2017-05-25T02:01:46.683Z,0
2017-05-25T02:02:48.139Z,0
2017-05-25T02:03:49.588Z,0
2017-05-25T02:04:51.039Z,0
2017-05-25T02:05:52.494Z,0
2017-05-25T02:06:53.951Z,0
2017-05-25T02:07:55.413Z,0
2017-05-25T02:08:56.866Z,0
2017-05-25T02:09:58.331Z,0
2017-05-25T02:10:59.790Z,0
2017-05-25T02:12:01.260Z,0
2017-05-25T02:13:02.716Z,0
2017-05-25T02:14:04.172Z,0
2017-05-25T02:15:05.635Z,0
2017-05-25T02:16:07.087Z,0
2017-05-25T02:17:08.532Z,0
2017-05-25T02:18:09.987Z,0
2017-05-25T02:19:11.441Z,0
2017-05-25T02:20:12.892Z,0
2017-05-25T02:21:14.343Z,0
2017-05-25T02:22:15.799Z,0
2017-05-25T02:23:17.254Z,0
2017-05-25T02:24:18.701Z,0
2017-05-25T02:25:20.146Z,0
2017-05-25T02:26:21.601Z,0
2017-05-25T02:27:23.053Z,0
2017-05-25T02:28:24.510Z,0
2017-05-25T02:29:25.960Z,0
2017-05-25T02:30:27.411Z,0
2017-05-25T02:31:28.862Z,0
2017-05-25T02:32:30.323Z,0
2017-05-25T02:33:31.805Z,0
2017-05-25T02:34:33.260Z,0
2017-05-25T02:35:34.710Z,0
2017-05-25T02:36:36.168Z,0
2017-05-25T02:37:37.622Z,0
2017-05-25T02:38:39.072Z,4
2017-05-25T02:39:40.525Z,4
2017-05-25T02:40:41.979Z,0
2017-05-25T02:41:43.435Z,0
2017-05-25T02:42:44.894Z,4
2017-05-25T02:43:46.354Z,4
2017-05-25T02:44:47.804Z,4
2017-05-25T02:45:49.256Z,4
2017-05-25T02:46:50.719Z,4
2017-05-25T02:47:52.172Z,8
2017-05-25T02:48:53.625Z,4
2017-05-25T02:49:55.076Z,8
2017-05-25T02:50:56.519Z,8
2017-05-25T02:51:57.976Z,8
2017-05-25T02:52:59.424Z,8
2017-05-25T02:54:00.886Z,12
2017-05-25T02:55:02.353Z,16
2017-05-25T02:56:03.800Z,16
2017-05-25T02:57:05.253Z,20
2017-05-25T02:58:06.716Z,20
2017-05-25T02:59:08.168Z,24
2017-05-25T03:00:09.617Z,28
2017-05-25T03:01:11.082Z,32
2017-05-25T03:02:12.539Z,32
2017-05-25T03:03:13.992Z,36
2017-05-25T03:04:15.447Z,44
2017-05-25T03:05:16.906Z,48
2017-05-25T03:06:18.378Z,56
2017-05-25T03:07:19.834Z,60
2017-05-25T03:08:21.283Z,68
2017-05-25T03:09:22.749Z,72
2017-05-25T03:10:24.201Z,76
2017-05-25T03:11:25.659Z,84
2017-05-25T03:12:27.128Z,92
2017-05-25T03:13:28.594Z,96
2017-05-25T03:14:30.043Z,104
2017-05-25T03:15:31.502Z,112
2017-05-25T03:16:32.954Z,120
2017-05-25T03:17:34.410Z,132
2017-05-25T03:18:35.877Z,148
2017-05-25T03:19:37.323Z,164
2017-05-25T03:20:38.780Z,172
2017-05-25T03:21:40.234Z,184
2017-05-25T03:22:41.692Z,196
2017-05-25T03:23:43.145Z,212
2017-05-25T03:24:44.601Z,224
2017-05-25T03:25:46.064Z,232
2017-05-25T03:26:47.531Z,248
2017-05-25T03:27:49.011Z,272
2017-05-25T03:28:50.469Z,292
2017-05-25T03:29:51.926Z,320
2017-05-25T03:30:53.389Z,348
2017-05-25T03:31:54.883Z,380
2017-05-25T03:32:56.348Z,400
2017-05-25T03:33:57.797Z,424
2017-05-25T03:34:59.267Z,452
2017-05-25T03:36:01.436Z,476
2017-05-25T03:37:02.897Z,512
2017-05-25T03:38:04.354Z,540
2017-05-25T03:39:05.848Z,568
2017-05-25T03:40:07.301Z,572
2017-05-25T03:41:08.755Z,588
2017-05-25T03:42:10.217Z,616
2017-05-25T03:43:11.673Z,644
2017-05-25T03:44:13.131Z,684
2017-05-25T03:45:14.588Z,720
2017-05-25T03:46:16.048Z,752
2017-05-25T03:47:17.522Z,792
2017-05-25T03:48:18.985Z,848
2017-05-25T03:49:20.436Z,936
2017-05-25T03:50:21.902Z,1004
2017-05-25T03:51:23.362Z,1032
2017-05-25T03:52:24.836Z,1024
2017-05-25T03:53:26.302Z,1028
2017-05-25T03:54:27.768Z,1056
2017-05-25T03:55:29.235Z,1100
2017-05-25T03:56:30.711Z,1124
2017-05-25T03:57:32.172Z,1164
2017-05-25T03:58:33.632Z,1172
2017-05-25T03:59:35.100Z,1188
2017-05-25T04:00:36.557Z,1232
2017-05-25T04:01:38.019Z,1240
2017-05-25T04:02:39.484Z,1220
2017-05-25T04:03:40.958Z,1264
2017-05-25T04:04:42.430Z,1376
2017-05-25T04:05:43.905Z,1480
2017-05-25T04:06:45.369Z,1532
2017-05-25T04:07:46.826Z,1592
2017-05-25T04:08:48.291Z,1684
2017-05-25T04:09:49.747Z,1784
2017-05-25T04:10:51.213Z,1844
2017-05-25T04:11:52.669Z,1888
2017-05-25T04:12:54.125Z,1884
2017-05-25T04:13:55.587Z,1800
2017-05-25T04:14:57.044Z,1864
2017-05-25T04:15:58.507Z,1952
2017-05-25T04:16:59.969Z,1928
2017-05-25T04:18:01.415Z,1960
2017-05-25T04:19:02.874Z,2064
2017-05-25T04:20:04.327Z,2124
2017-05-25T04:21:05.779Z,2136
2017-05-25T04:22:07.241Z,2156
2017-05-25T04:23:08.697Z,2196
2017-05-25T04:24:10.159Z,2224
2017-05-25T04:25:11.613Z,2336
2017-05-25T04:26:13.072Z,2420
2017-05-25T04:27:14.530Z,2440
2017-05-25T04:28:15.986Z,2452
2017-05-25T04:29:17.444Z,2472
2017-05-25T04:30:18.909Z,2588
2017-05-25T04:31:20.362Z,2732
2017-05-25T04:32:21.819Z,2820
2017-05-25T04:33:23.275Z,2876
2017-05-25T04:34:24.731Z,2988
2017-05-25T04:35:26.191Z,2988
2017-05-25T04:36:27.653Z,2888
2017-05-25T04:37:29.116Z,2856
2017-05-25T04:38:30.574Z,2940
2017-05-25T04:39:32.036Z,3064
2017-05-25T04:40:33.499Z,3104
2017-05-25T04:41:34.957Z,3192
2017-05-25T04:42:36.420Z,3316
2017-05-25T04:43:37.874Z,3432
2017-05-25T04:44:39.335Z,3500
2017-05-25T04:45:40.788Z,3540
2017-05-25T04:46:42.246Z,3560
2017-05-25T04:47:43.702Z,3520
2017-05-25T04:48:45.164Z,3708
2017-05-25T04:49:46.619Z,3988
2017-05-25T04:50:48.085Z,4044
2017-05-25T04:51:49.536Z,4040
2017-05-25T04:52:50.999Z,4172
2017-05-25T04:53:52.454Z,4448
2017-05-25T04:54:53.909Z,4708
2017-05-25T04:55:55.375Z,4836
2017-05-25T04:56:56.838Z,4892
2017-05-25T04:57:58.298Z,4924
2017-05-25T04:58:59.760Z,4924
2017-05-25T05:00:01.218Z,5072
2017-05-25T05:01:02.677Z,5148
2017-05-25T05:02:04.132Z,5152
2017-05-25T05:03:05.593Z,5164
2017-05-25T05:04:07.082Z,5196
2017-05-25T05:05:08.540Z,5200
2017-05-25T05:06:10.030Z,5188
2017-05-25T05:07:11.499Z,5244
2017-05-25T05:08:12.973Z,5444
2017-05-25T05:09:14.430Z,5676
2017-05-25T05:10:15.888Z,5848
2017-05-25T05:11:17.403Z,5916
2017-05-25T05:12:18.769Z,5944
2017-05-25T05:13:20.232Z,5996
2017-05-25T05:14:21.692Z,5888
2017-05-25T05:15:23.150Z,5556
2017-05-25T05:16:24.605Z,5428
2017-05-25T05:17:26.062Z,5596
2017-05-25T05:18:27.518Z,5632
2017-05-25T05:19:28.989Z,5644
2017-05-25T05:20:30.483Z,5548
2017-05-25T05:21:31.939Z,5500
2017-05-25T05:22:33.398Z,5936
2017-05-25T05:23:34.856Z,6056
2017-05-25T05:24:36.322Z,6204
2017-05-25T05:25:37.802Z,6452
2017-05-25T05:26:39.273Z,6548
2017-05-25T05:27:40.736Z,6860
2017-05-25T05:28:42.202Z,7272
2017-05-25T05:29:43.661Z,7512
2017-05-25T05:30:45.122Z,7800
2017-05-25T05:31:46.574Z,8024
2017-05-25T05:32:48.033Z,7896
2017-05-25T05:33:49.495Z,7940
2017-05-25T05:34:50.964Z,8048
2017-05-25T05:35:52.419Z,8404
2017-05-25T05:36:53.879Z,8612
2017-05-25T05:37:55.341Z,8800
2017-05-25T05:38:56.797Z,8820
2017-05-25T05:39:58.258Z,8900
2017-05-25T05:40:59.716Z,8772
2017-05-25T05:42:01.182Z,8776
2017-05-25T05:43:02.638Z,8652
2017-05-25T05:44:04.099Z,8500
2017-05-25T05:45:05.555Z,8308
2017-05-25T05:46:07.019Z,8508
2017-05-25T05:47:08.476Z,9008
2017-05-25T05:48:09.937Z,9296
2017-05-25T05:49:11.398Z,9508
2017-05-25T05:50:12.853Z,9724
2017-05-25T05:51:14.317Z,10648
2017-05-25T05:52:15.783Z,11588
2017-05-25T05:53:17.248Z,12444
2017-05-25T05:54:18.707Z,12968
2017-05-25T05:55:20.176Z,13684
2017-05-25T05:56:21.647Z,14232
2017-05-25T05:57:23.116Z,14648
2017-05-25T05:58:24.580Z,14640
2017-05-25T05:59:26.041Z,14196
2017-05-25T06:00:27.512Z,13688
2017-05-25T06:01:28.985Z,13136
2017-05-25T06:02:30.456Z,12728
2017-05-25T06:03:31.924Z,12500
2017-05-25T06:04:33.382Z,12340
2017-05-25T06:05:34.849Z,12332
2017-05-25T06:06:36.327Z,12676
2017-05-25T06:07:37.795Z,12968
2017-05-25T06:08:39.263Z,13160
2017-05-25T06:09:40.720Z,13476
2017-05-25T06:10:42.187Z,13840
2017-05-25T06:11:43.661Z,13532
2017-05-25T06:12:45.125Z,12772
2017-05-25T06:13:46.588Z,12808
2017-05-25T06:14:48.051Z,13772
2017-05-25T06:15:49.515Z,15856
2017-05-25T06:16:50.981Z,18688
2017-05-25T06:17:52.443Z,21312
2017-05-25T06:18:53.950Z,39776
2017-05-25T06:19:55.407Z,21952
2017-05-25T06:20:56.864Z,19200
2017-05-25T06:21:58.358Z,21184
2017-05-25T06:22:59.816Z,23808
2017-05-25T06:24:01.277Z,26528
2017-05-25T06:25:02.745Z,30048
2017-05-25T06:26:04.207Z,28448
2017-05-25T06:27:05.673Z,49696
2017-05-25T06:28:07.145Z,43296
2017-05-25T06:29:08.622Z,47424
2017-05-25T06:30:10.104Z,27520
2017-05-25T06:31:11.576Z,51360
2017-05-25T06:32:13.045Z,45504
2017-05-25T06:33:14.520Z,48768
2017-05-25T06:34:15.995Z,23520
2017-05-25T06:35:17.458Z,26720
2017-05-25T06:36:18.933Z,21056
2017-05-25T06:37:20.397Z,29952
2017-05-25T06:38:22.079Z,22912
2017-05-25T06:39:23.547Z,18480
2017-05-25T06:40:25.019Z,17416
2017-05-25T06:41:26.482Z,17048
2017-05-25T06:42:27.970Z,42016
2017-05-25T06:43:29.444Z,57216
2017-05-25T06:44:30.922Z,53344
2017-05-25T06:45:32.405Z,41152
2017-05-25T06:46:33.874Z,40960
2017-05-25T06:47:35.342Z,36608
2017-05-25T06:48:36.813Z,32864
2017-05-25T06:49:38.302Z,30880
2017-05-25T06:50:39.775Z,29344
2017-05-25T06:51:41.248Z,30976
2017-05-25T06:52:42.727Z,55648
2017-05-25T06:53:44.205Z,71008
2017-05-25T06:54:45.670Z,61280
2017-05-25T06:55:47.145Z,63392
2017-05-25T06:56:48.638Z,67136
2017-05-25T06:57:50.105Z,71840
2017-05-25T06:58:51.570Z,69920
2017-05-25T06:59:53.048Z,73216
2017-05-25T07:00:54.524Z,69888
2017-05-25T07:01:55.998Z,69248
2017-05-25T07:02:57.476Z,63424
2017-05-25T07:03:58.957Z,49184
2017-05-25T07:05:00.432Z,69152
2017-05-25T07:06:01.909Z,35136
2017-05-25T07:07:03.378Z,44576
2017-05-25T07:08:04.851Z,32864
2017-05-25T07:09:06.331Z,28160
2017-05-25T07:10:07.803Z,21120
2017-05-25T07:11:09.274Z,20960
2017-05-25T07:12:10.760Z,36448
2017-05-25T07:13:12.231Z,71552
2017-05-25T07:14:13.705Z,69728
2017-05-25T07:15:15.179Z,69472
2017-05-25T07:16:16.670Z,68032
2017-05-25T07:17:18.155Z,71456
2017-05-25T07:18:19.630Z,70656
2017-05-25T07:19:21.113Z,66368
2017-05-25T07:20:22.591Z,68928
2017-05-25T07:21:24.064Z,71136
2017-05-25T07:22:25.555Z,68832
2017-05-25T07:23:27.027Z,64448
2017-05-25T07:24:28.503Z,74336
2017-05-25T07:25:29.976Z,35360
2017-05-25T07:26:31.452Z,83488
2017-05-25T07:27:32.926Z,66816
2017-05-25T07:28:34.400Z,40864
2017-05-25T07:29:35.877Z,36064
2017-05-25T07:30:37.359Z,33216
2017-05-25T07:31:38.824Z,43616
2017-05-25T07:32:40.314Z,22816
2017-05-25T07:33:41.796Z,24992
2017-05-25T07:34:43.270Z,34688
2017-05-25T07:35:44.758Z,42912
2017-05-25T07:36:46.227Z,32832
2017-05-25T07:37:47.702Z,25760
2017-05-25T07:38:49.190Z,23168
2017-05-25T07:39:50.686Z,22208
2017-05-25T07:40:52.172Z,40544
2017-05-25T07:41:53.652Z,74560
2017-05-25T07:42:55.130Z,77728
2017-05-25T07:43:56.605Z,75456
2017-05-25T07:44:58.087Z,82432
2017-05-25T07:45:59.573Z,91744
2017-05-25T07:47:01.047Z,86240
2017-05-25T07:48:02.524Z,90816
2017-05-25T07:49:04.014Z,91616
2017-05-25T07:50:05.481Z,93568
2017-05-25T07:51:06.957Z,42176
2017-05-25T07:52:08.432Z,62144
2017-05-25T07:53:09.905Z,96544
2017-05-25T07:54:11.381Z,55008
2017-05-25T07:55:12.859Z,43840
2017-05-25T07:56:14.350Z,41024
2017-05-25T07:57:15.842Z,38912
2017-05-25T07:58:17.322Z,39744
2017-05-25T07:59:18.815Z,48096
2017-05-25T08:00:20.286Z,36928
2017-05-25T08:01:21.791Z,35648
2017-05-25T08:02:23.271Z,46464
2017-05-25T08:03:24.743Z,41248
2017-05-25T08:04:26.221Z,30624
2017-05-25T08:05:27.696Z,28736
2017-05-25T08:06:29.173Z,28320
2017-05-25T08:07:30.659Z,33056
2017-05-25T08:08:32.141Z,28224
2017-05-25T08:09:33.627Z,40352
2017-05-25T08:10:35.104Z,89920
2017-05-25T08:11:36.583Z,67584
2017-05-25T08:12:38.065Z,45728
2017-05-25T08:13:39.540Z,36672
2017-05-25T08:14:41.011Z,35104
2017-05-25T08:15:42.485Z,40960
2017-05-25T08:16:43.970Z,51520
2017-05-25T08:17:45.443Z,38752
2017-05-25T08:18:46.919Z,101824
2017-05-25T08:19:48.393Z,106048
2017-05-25T08:20:49.866Z,102752
2017-05-25T08:21:51.341Z,104832
2017-05-25T08:22:52.811Z,101952
2017-05-25T08:23:54.296Z,57344
2017-05-25T08:24:55.772Z,72096
2017-05-25T08:25:57.254Z,94048
2017-05-25T08:26:58.733Z,96352
2017-05-25T08:28:00.237Z,91360
2017-05-25T08:29:01.720Z,98976
2017-05-25T08:30:03.212Z,102016
2017-05-25T08:31:04.685Z,70336
2017-05-25T08:32:06.172Z,105920
2017-05-25T08:33:07.650Z,107776
2017-05-25T08:34:09.139Z,105632
2017-05-25T08:35:10.617Z,102528
2017-05-25T08:36:12.107Z,108288
2017-05-25T08:37:13.587Z,45184
2017-05-25T08:38:15.079Z,39872
2017-05-25T08:39:16.557Z,37312
2017-05-25T08:40:18.032Z,47552
2017-05-25T08:41:19.516Z,36352
2017-05-25T08:42:20.992Z,41760
2017-05-25T08:43:22.470Z,37792
2017-05-25T08:44:23.954Z,104224
2017-05-25T08:45:25.423Z,61696
2017-05-25T08:46:26.903Z,56416
2017-05-25T08:47:28.383Z,106112
2017-05-25T08:48:29.873Z,96736
2017-05-25T08:49:31.353Z,100448
2017-05-25T08:50:32.828Z,99136
2017-05-25T08:51:34.306Z,99360
2017-05-25T08:52:35.790Z,100960
2017-05-25T08:53:37.268Z,102816
2017-05-25T08:54:38.764Z,102656
2017-05-25T08:55:40.243Z,100224
2017-05-25T08:56:41.726Z,62656
2017-05-25T08:57:43.219Z,104192
2017-05-25T08:58:44.697Z,91648
2017-05-25T08:59:46.183Z,105056
2017-05-25T09:00:47.664Z,105344
2017-05-25T09:01:49.140Z,108800
2017-05-25T09:02:50.620Z,103008
2017-05-25T09:03:52.102Z,100096
2017-05-25T09:04:53.583Z,107712
2017-05-25T09:05:55.069Z,108928
2017-05-25T09:06:56.548Z,109792
2017-05-25T09:07:58.030Z,108288
2017-05-25T09:08:59.514Z,103776
2017-05-25T09:10:01.001Z,104032
2017-05-25T09:11:02.488Z,105376
2017-05-25T09:12:03.988Z,105248
2017-05-25T09:13:05.466Z,110176
2017-05-25T09:14:06.950Z,104320
2017-05-25T09:15:08.430Z,104032
2017-05-25T09:16:09.911Z,107584
2017-05-25T09:17:11.421Z,109536
2017-05-25T09:18:12.907Z,112224
2017-05-25T09:19:14.385Z,113408
2017-05-25T09:20:15.875Z,115552
2017-05-25T09:21:17.359Z,110656
2017-05-25T09:22:18.847Z,110944
2017-05-25T09:23:20.335Z,108032
2017-05-25T09:24:21.814Z,108768
2017-05-25T09:25:23.297Z,107456
2017-05-25T09:26:24.788Z,114048
2017-05-25T09:27:26.267Z,105408
2017-05-25T09:28:27.756Z,108096
2017-05-25T09:29:29.251Z,112320
2017-05-25T09:30:30.730Z,107520
2017-05-25T09:31:32.221Z,111264
2017-05-25T09:32:33.709Z,113600
2017-05-25T09:33:35.190Z,113312
2017-05-25T09:34:37.485Z,115392
2017-05-25T09:35:38.923Z,110720
2017-05-25T09:36:40.404Z,102080
2017-05-25T09:37:41.895Z,111424
2017-05-25T09:38:43.375Z,113120
2017-05-25T09:39:44.850Z,113728
2017-05-25T09:40:46.333Z,113600
2017-05-25T09:41:47.823Z,113440
2017-05-25T09:42:49.309Z,115808
2017-05-25T09:43:50.807Z,114944
2017-05-25T09:44:52.291Z,112544
2017-05-25T09:45:54.365Z,115616
2017-05-25T09:46:55.851Z,104768
2017-05-25T09:47:57.350Z,97152
2017-05-25T09:48:58.841Z,113088
2017-05-25T09:50:00.313Z,120064
2017-05-25T09:51:01.797Z,116640
2017-05-25T09:52:03.278Z,115520
2017-05-25T09:53:04.770Z,121280
2017-05-25T09:54:06.253Z,119200
2017-05-25T09:55:07.731Z,114112
2017-05-25T09:56:09.281Z,116416
2017-05-25T09:57:10.767Z,117632
2017-05-25T09:58:12.254Z,116416
2017-05-25T09:59:13.748Z,122080
2017-05-25T10:00:15.232Z,122912
2017-05-25T10:01:16.714Z,47488
2017-05-25T10:02:18.193Z,61024
2017-05-25T10:03:19.673Z,120736
2017-05-25T10:04:21.248Z,97792
2017-05-25T10:05:22.737Z,119136
2017-05-25T10:06:24.229Z,119808
2017-05-25T10:07:25.723Z,123584
2017-05-25T10:08:27.206Z,116480
2017-05-25T10:09:28.685Z,115680
2017-05-25T10:10:30.165Z,117312
2017-05-25T10:11:31.656Z,116288
2017-05-25T10:12:33.139Z,113696
2017-05-25T10:13:34.618Z,119616
2017-05-25T10:14:36.125Z,122624
2017-05-25T10:15:37.609Z,119840
2017-05-25T10:16:39.097Z,118048
2017-05-25T10:17:40.576Z,121632
2017-05-25T10:18:42.077Z,123808
2017-05-25T10:19:43.564Z,124896
2017-05-25T10:20:45.048Z,122336
2017-05-25T10:21:46.539Z,118880
2017-05-25T10:22:48.024Z,120544
2017-05-25T10:23:49.506Z,123552
2017-05-25T10:24:50.987Z,126816
2017-05-25T10:25:52.487Z,122816
2017-05-25T10:26:53.981Z,119392
2017-05-25T10:27:55.467Z,121696
2017-05-25T10:28:56.965Z,123680
2017-05-25T10:29:58.451Z,127616
2017-05-25T10:30:59.933Z,127808
2017-05-25T10:32:01.417Z,123424
2017-05-25T10:33:02.896Z,124352
2017-05-25T10:34:04.386Z,123936
2017-05-25T10:35:05.871Z,121088
2017-05-25T10:36:07.359Z,122880
2017-05-25T10:37:08.844Z,125888
2017-05-25T10:38:10.325Z,125792
2017-05-25T10:39:11.805Z,126560
2017-05-25T10:40:13.287Z,126912
2017-05-25T10:41:14.772Z,125696
2017-05-25T10:42:16.264Z,128544
2017-05-25T10:43:17.751Z,42752
2017-05-25T10:44:19.231Z,46016
2017-05-25T10:45:20.715Z,120064
2017-05-25T10:46:22.205Z,126720
2017-05-25T10:47:23.692Z,127168
2017-05-25T10:48:25.177Z,124864
2017-05-25T10:49:26.670Z,120704
2017-05-25T10:50:28.184Z,122912
2017-05-25T10:51:29.670Z,126688
2017-05-25T10:52:31.173Z,129728
2017-05-25T10:53:32.664Z,126816
2017-05-25T10:54:34.158Z,122368
2017-05-25T10:55:35.659Z,124768
2017-05-25T10:56:37.152Z,128992
2017-05-25T10:57:38.647Z,127392
2017-05-25T10:58:40.140Z,124768
2017-05-25T10:59:41.633Z,125312
2017-05-25T11:00:43.121Z,122944
2017-05-25T11:01:44.599Z,123328
2017-05-25T11:02:46.087Z,125696
2017-05-25T11:03:47.572Z,123680
2017-05-25T11:04:49.089Z,125760
2017-05-25T11:05:50.573Z,126208
2017-05-25T11:06:52.062Z,124416
2017-05-25T11:07:53.551Z,123040
2017-05-25T11:08:55.046Z,117248
2017-05-25T11:09:56.541Z,125344
2017-05-25T11:10:58.086Z,127584
2017-05-25T11:11:59.574Z,125088
2017-05-25T11:13:01.068Z,124320
2017-05-25T11:14:02.555Z,124704
2017-05-25T11:15:04.035Z,126656
2017-05-25T11:16:05.531Z,129600
2017-05-25T11:17:07.036Z,129408
2017-05-25T11:18:08.523Z,131168
2017-05-25T11:19:10.021Z,121440
2017-05-25T11:20:11.517Z,118240
2017-05-25T11:21:13.000Z,122432
2017-05-25T11:22:14.484Z,127136
2017-05-25T11:23:15.968Z,128256
2017-05-25T11:24:17.452Z,127744
2017-05-25T11:25:19.004Z,126496
2017-05-25T11:26:20.522Z,125504
2017-05-25T11:27:22.006Z,127520
2017-05-25T11:28:23.490Z,128640
2017-05-25T11:29:24.987Z,125728
2017-05-25T11:30:26.473Z,128256
2017-05-25T11:31:27.965Z,129824
2017-05-25T11:32:29.458Z,132960
2017-05-25T11:33:30.949Z,133088
2017-05-25T11:34:32.476Z,131072
2017-05-25T11:35:33.960Z,127872
2017-05-25T11:36:35.438Z,128960
2017-05-25T11:37:36.932Z,123872
2017-05-25T11:38:38.419Z,49856
2017-05-25T11:39:39.903Z,124896
2017-05-25T11:40:41.390Z,135808
2017-05-25T11:41:42.882Z,65024
2017-05-25T11:42:44.359Z,132448
2017-05-25T11:43:45.844Z,131232
2017-05-25T11:44:47.327Z,128320
2017-05-25T11:45:48.831Z,129984
2017-05-25T11:46:50.321Z,130848
2017-05-25T11:47:51.804Z,130688
2017-05-25T11:48:53.291Z,124512
2017-05-25T11:49:54.789Z,123776
2017-05-25T11:50:56.270Z,128512
2017-05-25T11:51:57.762Z,126976
2017-05-25T11:52:59.259Z,124384
2017-05-25T11:54:00.785Z,132352
2017-05-25T11:55:02.272Z,130464
2017-05-25T11:56:04.345Z,134048
2017-05-25T11:57:05.839Z,128448
2017-05-25T11:58:07.336Z,126656
2017-05-25T11:59:08.825Z,117824
2017-05-25T12:00:10.310Z,120032
2017-05-25T12:01:11.797Z,128032
2017-05-25T12:02:13.286Z,124160
2017-05-25T12:03:14.793Z,128512
2017-05-25T12:04:16.309Z,132000
2017-05-25T12:05:17.796Z,128672
2017-05-25T12:06:19.295Z,126176
2017-05-25T12:07:20.779Z,129280
2017-05-25T12:08:22.269Z,128480
2017-05-25T12:09:23.772Z,128992
2017-05-25T12:10:25.260Z,128064
2017-05-25T12:11:26.743Z,130080
2017-05-25T12:12:28.233Z,127936
2017-05-25T12:13:29.717Z,122464
2017-05-25T12:14:31.207Z,123616
2017-05-25T12:15:32.692Z,123008
2017-05-25T12:16:34.181Z,124032
2017-05-25T12:17:35.669Z,123488
2017-05-25T12:18:37.164Z,121536
2017-05-25T12:19:38.647Z,123456
2017-05-25T12:20:40.133Z,125344
2017-05-25T12:21:41.619Z,125568
2017-05-25T12:22:43.106Z,122720
2017-05-25T12:23:44.592Z,118336
2017-05-25T12:24:46.083Z,122944
2017-05-25T12:25:47.562Z,129504
2017-05-25T12:26:49.065Z,129632
2017-05-25T12:27:50.549Z,124352
2017-05-25T12:28:52.039Z,124224
2017-05-25T12:29:53.537Z,123744
2017-05-25T12:30:55.026Z,116768
2017-05-25T12:31:56.508Z,116288
2017-05-25T12:32:58.003Z,118432
2017-05-25T12:33:59.500Z,122784
2017-05-25T12:35:00.994Z,124032
2017-05-25T12:36:02.490Z,124544
2017-05-25T12:37:03.994Z,119360
2017-05-25T12:38:05.479Z,121312
2017-05-25T12:39:06.971Z,119936
2017-05-25T12:40:08.453Z,122368
2017-05-25T12:41:09.940Z,123264
2017-05-25T12:42:11.430Z,121760
2017-05-25T12:43:12.922Z,121856
2017-05-25T12:44:14.419Z,118240
2017-05-25T12:45:15.914Z,116576
2017-05-25T12:46:17.408Z,120064
2017-05-25T12:47:18.902Z,121536
2017-05-25T12:48:20.387Z,122336
2017-05-25T12:49:21.880Z,122880
2017-05-25T12:50:23.364Z,121824
2017-05-25T12:51:24.846Z,122368
2017-05-25T12:52:26.336Z,119904
2017-05-25T12:53:27.821Z,124192
2017-05-25T12:54:29.308Z,117632
2017-05-25T12:55:30.803Z,115584
2017-05-25T12:56:32.287Z,31872
2017-05-25T12:57:33.783Z,120864
2017-05-25T12:58:35.309Z,122304
2017-05-25T12:59:36.795Z,121920
2017-05-25T13:00:38.287Z,119936
2017-05-25T13:01:39.774Z,118912
2017-05-25T13:02:41.259Z,118976
2017-05-25T13:03:42.749Z,38432
2017-05-25T13:04:44.228Z,102752
2017-05-25T13:05:45.716Z,113408
2017-05-25T13:06:47.208Z,112384
2017-05-25T13:07:48.698Z,114368
2017-05-25T13:08:50.187Z,115936
2017-05-25T13:09:51.669Z,113248
2017-05-25T13:10:53.153Z,110720
2017-05-25T13:11:54.636Z,110688
2017-05-25T13:12:56.129Z,114368
2017-05-25T13:13:57.611Z,120576
2017-05-25T13:14:59.116Z,120192
2017-05-25T13:16:00.644Z,116416
2017-05-25T13:17:02.124Z,28448
2017-05-25T13:18:03.613Z,115712
2017-05-25T13:19:05.097Z,112352
2017-05-25T13:20:06.582Z,117088
2017-05-25T13:21:08.071Z,116416
2017-05-25T13:22:09.565Z,119008
2017-05-25T13:23:11.047Z,120192
2017-05-25T13:24:12.540Z,119296
2017-05-25T13:25:14.025Z,115712
2017-05-25T13:26:15.507Z,58240
2017-05-25T13:27:16.992Z,25408
2017-05-25T13:28:18.476Z,28160
2017-05-25T13:29:19.960Z,118912
2017-05-25T13:30:21.442Z,112864
2017-05-25T13:31:22.937Z,108864
2017-05-25T13:32:24.416Z,88736
2017-05-25T13:33:25.905Z,37504